Time;durP1;ratioP1;P1;durP2;ratioP2;P2;SDS_P1;SDS_P2;PMS_P1;PMS_P2;Temp;Humidity;BMP_temperature;BMP_pressure;BME280_temperature;BME280_humidity;BME280_pressure;Samples;Min_cycle;Max_cycle;Signal;HPM_P1;HPM_P2
2022/05/09 00:01:45;;;;;;;6.95;3.77;;;;;;;10.68;58.98;101752.41;1688657;84;27684;-78
2022/05/09 00:04:11;;;;;;;11.65;4.60;;;;;;;10.63;59.56;101747.52;1699763;84;25812;-77
2022/05/09 00:06:37;;;;;;;10.70;3.95;;;;;;;10.56;59.60;101758.52;1688806;82;25911;-77
2022/05/09 00:09:05;;;;;;;5.78;3.30;;;;;;;10.45;59.87;101764.17;1696081;84;25789;-77
2022/05/09 00:11:32;;;;;;;7.10;3.87;;;;;;;10.40;60.05;101765.13;1700591;84;25896;-77
2022/05/09 00:13:59;;;;;;;8.15;3.40;;;;;;;10.34;60.17;101772.46;1677708;84;27457;-77
2022/05/09 00:16:27;;;;;;;6.22;3.90;;;;;;;10.27;60.50;101774.07;1687142;82;26016;-77
2022/05/09 00:18:53;;;;;;;7.50;3.70;;;;;;;10.23;60.77;101769.18;1692902;84;25316;-77
2022/05/09 00:21:19;;;;;;;9.68;3.85;;;;;;;10.18;60.97;101770.98;1690474;84;25839;-77
2022/05/09 00:23:46;;;;;;;6.75;3.95;;;;;;;10.14;61.22;101771.48;1692648;84;26409;-77
2022/05/09 00:26:12;;;;;;;6.50;3.50;;;;;;;10.12;61.84;101777.45;1703957;82;27496;-78
2022/05/09 00:28:38;;;;;;;9.75;3.55;;;;;;;10.05;61.98;101782.06;1690240;84;25866;-78
2022/05/09 00:31:05;;;;;;;5.60;3.70;;;;;;;9.98;62.40;101783.70;1694240;84;26530;-78
2022/05/09 00:33:32;;;;;;;9.35;4.60;;;;;;;9.92;62.67;101780.80;1701447;84;25817;-78
2022/05/09 00:35:58;;;;;;;6.70;3.50;;;;;;;9.87;62.87;101781.73;1704861;82;25953;-77
2022/05/09 00:38:25;;;;;;;11.95;4.30;;;;;;;9.80;63.55;101787.35;1692501;84;27433;-77
2022/05/09 00:43:38;;;;;;;6.75;3.83;;;;;;;9.68;64.32;101782.74;1679675;84;25892;-77
2022/05/09 00:46:05;;;;;;;4.92;3.67;;;;;;;9.61;64.47;101782.15;1686592;82;25817;-77
2022/05/09 00:48:32;;;;;;;7.10;3.72;;;;;;;9.55;65.00;101789.45;1690498;84;25799;-77
2022/05/09 00:50:59;;;;;;;6.83;4.22;;;;;;;9.52;65.08;101792.41;1696659;84;28304;-77
2022/05/09 00:53:29;;;;;;;8.98;4.62;;;;;;;9.48;65.46;101797.23;1688181;84;25741;-77
2022/05/09 00:56:02;;;;;;;8.80;4.15;;;;;;;9.44;65.51;101797.19;1695006;84;26253;-77
2022/05/09 00:58:42;;;;;;;7.45;4.53;;;;;;;9.40;65.59;101801.65;1702136;84;26426;-77
2022/05/09 01:01:11;;;;;;;7.03;3.73;;;;;;;9.38;66.12;101803.63;1704707;84;26042;-77
2022/05/09 01:03:43;;;;;;;7.70;4.50;;;;;;;9.32;66.65;101803.75;1692907;83;27601;-77
2022/05/09 01:06:10;;;;;;;7.28;3.77;;;;;;;9.26;66.58;101809.17;1676155;84;25836;-77
2022/05/09 01:08:37;;;;;;;6.47;4.33;;;;;;;9.23;66.76;101809.49;1679360;84;25772;-78
2022/05/09 01:11:09;;;;;;;7.90;4.00;;;;;;;9.21;66.92;101813.30;1690669;84;26550;-77
2022/05/09 01:13:40;;;;;;;8.73;4.95;;;;;;;9.18;67.41;101809.08;1694317;84;25359;-78
2022/05/09 01:16:08;;;;;;;9.45;4.15;;;;;;;9.13;67.50;101812.69;1681245;82;27558;-77
2022/05/09 01:18:36;;;;;;;6.62;4.33;;;;;;;9.07;68.29;101806.59;1704278;84;26351;-78
2022/05/09 01:21:27;;;;;;;7.03;4.72;;;;;;;9.04;68.32;101818.09;1694749;84;25827;-77
2022/05/09 01:23:53;;;;;;;9.03;4.58;;;;;;;8.97;68.42;101816.50;1681956;84;25898;-77
2022/05/09 01:26:19;;;;;;;8.75;4.62;;;;;;;8.92;68.64;101812.56;1692735;84;25820;-77
2022/05/09 01:28:46;;;;;;;6.17;4.50;;;;;;;8.89;68.59;101815.06;1704035;84;28271;-77
2022/05/09 01:31:17;;;;;;;9.58;4.55;;;;;;;8.85;68.99;101821.69;1704278;84;25930;-78
2022/05/09 01:33:47;;;;;;;6.90;4.35;;;;;;;8.81;69.14;101820.27;1681895;84;26435;-78
2022/05/09 01:36:18;;;;;;;7.33;4.50;;;;;;;8.78;69.37;101823.73;1682639;84;26742;-78
2022/05/09 01:38:56;;;;;;;4.95;3.85;;;;;;;8.75;69.73;101825.34;1690714;84;32515;-77
2022/05/09 01:41:24;;;;;;;8.75;4.70;;;;;;;8.71;70.11;101816.79;1694495;83;27471;-77
2022/05/09 01:43:57;;;;;;;8.63;3.98;;;;;;;8.69;70.05;101820.59;1692391;84;26403;-78
2022/05/09 01:46:26;;;;;;;;;;;;;;;8.64;70.86;101833.55;1693005;82;25821;-78
2022/05/09 01:51:42;;;;;;;9.48;4.67;;;;;;;8.56;70.70;101826.25;1688409;84;26465;-76
2022/05/09 01:54:09;;;;;;;7.20;4.33;;;;;;;8.52;70.76;101826.19;1676123;84;27633;-77
2022/05/09 01:56:38;;;;;;;9.30;5.47;;;;;;;8.50;71.05;101829.50;1699440;82;25742;-77
2022/05/09 01:59:08;;;;;;;9.00;4.65;;;;;;;8.47;71.10;101831.11;1686416;84;25234;-77
2022/05/09 02:01:40;;;;;;;7.45;4.40;;;;;;;8.43;71.48;101826.55;1699590;84;25796;-77
2022/05/09 02:04:06;;;;;;;9.55;4.72;;;;;;;8.42;71.57;101834.23;1695470;84;25789;-77
2022/05/09 02:06:33;;;;;;;8.18;4.30;;;;;;;8.39;71.62;101838.52;1692416;84;28252;-77
2022/05/09 02:09:01;;;;;;;7.12;4.70;;;;;;;8.36;72.21;101840.63;1695071;84;25793;-77
2022/05/09 02:11:27;;;;;;;8.78;4.65;;;;;;;8.29;72.94;101841.69;1690324;84;26092;-77
2022/05/09 02:13:53;;;;;;;7.12;4.97;;;;;;;8.23;72.38;101844.87;1708000;82;25804;-77
2022/05/09 02:16:20;;;;;;;8.00;4.65;;;;;;;8.21;72.54;101840.68;1733212;81;25722;-77
2022/05/09 02:18:46;;;;;;;8.55;4.97;;;;;;;8.19;72.71;101847.98;1732997;80;28297;-77
2022/05/09 02:21:12;;;;;;;7.22;4.37;;;;;;;8.15;72.82;101848.73;1732710;82;26642;-77
2022/05/09 02:23:39;;;;;;;11.30;4.83;;;;;;;8.13;73.64;101854.71;1727491;82;25752;-77
2022/05/09 02:26:06;;;;;;;10.18;4.92;;;;;;;8.09;73.79;101857.31;1691844;82;25921;-77
2022/05/09 02:28:32;;;;;;;6.78;4.35;;;;;;;8.06;73.41;101861.58;1697562;84;26063;-77
2022/05/09 02:31:01;;;;;;;8.38;4.58;;;;;;;8.05;73.47;101854.58;1691218;84;27539;-77
2022/05/09 02:33:27;;;;;;;9.90;4.67;;;;;;;8.04;73.36;101858.73;1740082;81;26459;-77
2022/05/09 02:35:53;;;;;;;6.75;4.25;;;;;;;8.01;73.77;101861.66;1739921;80;25476;-78
2022/05/09 02:38:21;;;;;;;8.83;4.45;;;;;;;7.98;73.79;101861.93;1742154;81;25977;-78
2022/05/09 02:40:48;;;;;;;5.70;4.00;;;;;;;7.96;73.62;101866.56;1741575;81;25929;-77
2022/05/09 02:43:14;;;;;;;8.23;4.87;;;;;;;7.94;74.15;101865.38;1741119;81;27436;-77
2022/05/09 02:45:40;;;;;;;7.15;4.40;;;;;;;7.92;74.02;101862.49;1753237;81;25812;-77
2022/05/09 02:48:08;;;;;;;8.63;4.08;;;;;;;7.92;73.78;101863.83;1740588;80;25982;-77
2022/05/09 02:50:34;;;;;;;7.55;5.03;;;;;;;7.91;73.65;101867.01;1740552;81;25741;-77
2022/05/09 02:53:00;;;;;;;6.65;4.28;;;;;;;7.89;73.76;101868.13;1751715;80;26178;-77
2022/05/09 02:55:27;;;;;;;7.40;4.17;;;;;;;7.87;73.66;101867.42;1751972;80;27519;-78
2022/05/09 02:57:54;;;;;;;8.08;4.25;;;;;;;7.82;74.03;101869.64;1756327;80;25800;-78
2022/05/09 03:00:27;;;;;;;8.18;4.90;;;;;;;7.77;73.69;101873.58;1752868;80;25717;-78
2022/05/09 03:05:41;;;;;;;7.12;3.67;;;;;;;7.71;73.85;101888.80;1752538;80;26432;-78
2022/05/09 03:08:09;;;;;;;6.90;4.50;;;;;;;7.68;73.82;101885.54;1746173;80;27603;-77
2022/05/09 03:10:39;;;;;;;6.28;4.30;;;;;;;7.66;73.75;101888.35;1752453;80;26031;-78
2022/05/09 03:13:08;;;;;;;7.43;4.63;;;;;;;7.65;73.94;101884.02;1753884;80;25794;-78
2022/05/09 03:15:39;;;;;;;7.37;4.53;;;;;;;7.64;73.75;101887.65;1734722;81;26361;-78
2022/05/09 03:18:06;;;;;;;;;;;;;;;7.63;73.71;101895.80;1726266;81;25766;-78
2022/05/09 03:20:33;;;;;;;5.58;4.20;;;;;;;7.58;74.22;101891.34;1740288;81;27447;-77
2022/05/09 03:22:59;;;;;;;8.88;4.50;;;;;;;7.53;73.89;101902.41;1738785;81;25702;-78
2022/05/09 03:25:26;;;;;;;7.40;3.90;;;;;;;7.55;73.88;101905.79;1738990;81;26354;-78
2022/05/09 03:27:52;;;;;;;6.53;3.27;;;;;;;7.55;74.11;101908.94;1742092;81;25908;-78
2022/05/09 03:30:20;;;;;;;5.28;3.90;;;;;;;7.50;74.44;101905.38;1742589;81;26038;-78
2022/05/09 03:32:47;;;;;;;6.42;4.20;;;;;;;7.47;74.27;101909.62;1753143;81;27406;-78
2022/05/09 03:35:17;;;;;;;6.25;4.30;;;;;;;7.46;74.32;101913.25;1753249;81;25718;-78
2022/05/09 03:37:43;;;;;;;8.80;4.45;;;;;;;7.44;74.43;101923.21;1739438;80;25748;-78
2022/05/09 03:40:11;;;;;;;6.12;4.12;;;;;;;7.43;74.58;101922.02;1743759;81;26595;-78
2022/05/09 03:42:37;;;;;;;7.10;4.03;;;;;;;7.42;74.55;101924.35;1728899;81;25900;-78
2022/05/09 03:45:05;;;;;;;6.95;3.98;;;;;;;7.42;74.84;101929.17;1732807;81;27448;-78
2022/05/09 03:47:32;;;;;;;7.42;4.12;;;;;;;7.43;74.84;101932.69;1736191;80;26323;-78
2022/05/09 03:49:58;;;;;;;5.50;3.87;;;;;;;7.44;74.74;101936.54;1745156;81;25988;-78
2022/05/09 03:52:25;;;;;;;6.55;3.60;;;;;;;7.46;74.90;101941.77;1741733;81;26640;-78
2022/05/09 03:54:51;;;;;;;6.72;4.10;;;;;;;7.47;74.76;101934.95;1742583;81;26435;-78
2022/05/09 03:57:18;;;;;;;4.85;3.42;;;;;;;7.50;74.80;101940.52;1753263;80;27489;-78
2022/05/09 03:59:46;;;;;;;5.20;3.50;;;;;;;7.54;75.02;101944.59;1741343;81;25953;-79
2022/05/09 04:02:13;;;;;;;7.10;4.12;;;;;;;7.59;75.24;101941.87;1741033;81;25825;-79
2022/05/09 04:04:39;;;;;;;7.08;4.10;;;;;;;7.63;74.71;101945.13;1763292;80;26582;-79
2022/05/09 04:07:05;;;;;;;6.60;3.25;;;;;;;7.64;74.62;101947.65;1765702;79;26384;-78
2022/05/09 04:09:31;;;;;;;7.40;3.98;;;;;;;7.65;74.51;101946.69;1747528;80;27447;-78
2022/05/09 04:11:58;;;;;;;8.25;3.60;;;;;;;7.69;74.67;101952.09;1744633;81;25927;-79
2022/05/09 04:17:10;;;;;;;4.42;3.25;;;;;;;7.75;74.18;101954.22;1735884;81;26528;-78
2022/05/09 04:19:38;;;;;;;6.00;3.52;;;;;;;7.79;74.15;101958.78;1739371;81;25556;-78
2022/05/09 04:22:05;;;;;;;6.25;3.12;;;;;;;7.82;73.82;101951.86;1753332;81;27497;-78
2022/05/09 04:24:31;;;;;;;4.80;3.47;;;;;;;7.87;73.59;101949.60;1737466;81;25812;-78
2022/05/09 04:26:58;;;;;;;6.28;3.35;;;;;;;7.93;73.46;101946.90;1735562;80;26151;-78
2022/05/09 04:29:27;;;;;;;8.53;3.15;;;;;;;7.99;73.35;101959.20;1755360;80;26582;-78
2022/05/09 04:31:54;;;;;;;4.62;3.45;;;;;;;8.05;72.99;101963.13;1760606;80;25824;-78
2022/05/09 04:34:21;;;;;;;5.67;3.35;;;;;;;8.11;72.70;101958.09;1753695;80;28374;-78
2022/05/09 04:36:47;;;;;;;5.33;3.42;;;;;;;8.18;72.62;101965.05;1755769;80;25855;-78
2022/05/09 04:39:15;;;;;;;6.65;2.60;;;;;;;8.26;72.36;101959.41;1758368;80;25813;-78
2022/05/09 04:41:41;;;;;;;4.37;2.85;;;;;;;8.34;72.05;101966.23;1752822;80;25498;-78
2022/05/09 04:44:08;;;;;;;4.65;3.05;;;;;;;8.41;71.70;101966.03;1762350;80;25877;-78
2022/05/09 04:46:35;;;;;;;6.00;3.02;;;;;;;8.51;71.57;101969.55;1754875;79;27699;-78
2022/05/09 04:49:01;;;;;;;5.03;2.98;;;;;;;8.61;71.22;101974.91;1758997;80;26538;-78
2022/05/09 04:51:27;;;;;;;5.83;2.70;;;;;;;8.70;70.69;101979.41;1757194;80;25500;-78
2022/05/09 04:53:54;;;;;;;5.60;2.77;;;;;;;8.79;70.46;101975.05;1756705;80;25794;-78
2022/05/09 04:56:20;;;;;;;4.40;3.05;;;;;;;8.87;69.84;101978.69;1758507;79;25727;-79
2022/05/09 04:58:47;;;;;;;9.90;2.60;;;;;;;8.96;69.83;101976.48;1755688;80;55332;-78
2022/05/09 05:01:14;;;;;;;5.85;2.67;;;;;;;9.06;69.32;101979.15;1758898;80;25872;-79
2022/05/09 05:03:40;;;;;;;5.78;2.52;;;;;;;9.12;68.33;101978.08;1750255;80;26459;-78
2022/05/09 05:06:06;;;;;;;6.17;2.47;;;;;;;9.18;68.41;101980.17;1751498;80;25715;-78
2022/05/09 05:08:36;;;;;;;3.52;2.30;;;;;;;9.28;68.71;101986.33;1757650;80;25907;-79
2022/05/09 05:11:06;;;;;;;4.10;2.37;;;;;;;9.39;67.58;101983.16;1748150;80;27439;-79
2022/05/09 05:13:33;;;;;;;6.85;3.05;;;;;;;9.46;66.79;101986.91;1743092;80;25897;-78
2022/05/09 05:16:00;;;;;;;3.37;2.47;;;;;;;9.53;67.24;101990.70;1729282;81;26559;-78
2022/05/09 05:18:28;;;;;;;5.35;2.45;;;;;;;9.60;66.86;101996.64;1723790;81;25777;-78
2022/05/09 05:20:55;;;;;;;4.65;2.60;;;;;;;9.70;66.57;101993.95;1725984;81;25897;-78
2022/05/09 05:23:22;;;;;;;4.47;2.27;;;;;;;9.80;66.41;101998.27;1747832;80;27516;-79
2022/05/09 05:25:48;;;;;;;8.73;2.42;;;;;;;9.89;66.01;102006.75;1741490;81;26068;-79
2022/05/09 05:28:16;;;;;;;6.75;2.62;;;;;;;9.97;65.13;102001.49;1739233;80;25750;-79
2022/05/09 05:30:43;;;;;;;4.70;2.55;;;;;;;10.07;65.73;101992.09;1740539;81;25863;-78
2022/05/09 05:33:10;;;;;;;3.22;2.08;;;;;;;10.19;65.76;101998.09;1738465;81;25931;-78
2022/05/09 05:35:36;;;;;;;3.95;2.00;;;;;;;10.32;64.95;102007.95;1738147;80;27497;-78
2022/05/09 05:38:02;;;;;;;3.87;2.08;;;;;;;10.42;65.50;102009.56;1735628;81;26206;-78
2022/05/09 05:40:28;;;;;;;3.77;2.25;;;;;;;10.55;64.11;102007.85;1748440;81;25750;-78
2022/05/09 05:42:54;;;;;;;5.10;2.12;;;;;;;10.61;63.48;102008.09;1734466;81;26548;-78
2022/05/09 05:45:23;;;;;;;4.03;2.45;;;;;;;10.72;64.23;102016.39;1739107;81;25759;-79
2022/05/09 05:47:51;;;;;;;4.85;2.70;;;;;;;10.83;63.66;102012.14;1738981;80;28084;-79
2022/05/09 05:50:21;;;;;;;5.12;2.08;;;;;;;10.96;62.71;102017.11;1740702;81;26443;-79
2022/05/09 05:52:48;;;;;;;4.55;2.17;;;;;;;11.06;63.09;102017.86;1753442;81;25557;-78
2022/05/09 05:55:14;;;;;;;3.25;1.98;;;;;;;11.15;61.44;102017.78;1741076;81;25796;-79
2022/05/09 05:57:41;;;;;;;4.33;1.60;;;;;;;11.22;61.15;102021.53;1742089;80;25313;-79
2022/05/09 06:00:18;;;;;;;5.65;2.15;;;;;;;11.30;60.25;102022.92;1742447;80;27491;-79
2022/05/09 06:02:45;;;;;;;3.30;1.57;;;;;;;11.40;59.97;102020.13;1736098;81;25978;-79
2022/05/09 06:05:14;;;;;;;3.02;1.42;;;;;;;11.49;60.46;102023.21;1738187;81;26483;-79
2022/05/09 06:07:40;;;;;;;4.47;1.50;;;;;;;11.62;60.60;102021.80;1735239;81;25761;-79
2022/05/09 06:10:09;;;;;;;2.52;1.72;;;;;;;11.78;60.65;102021.58;1724117;81;26253;-78
2022/05/09 06:12:36;;;;;;;3.02;1.70;;;;;;;11.94;60.08;102017.61;1723839;81;28770;-79
2022/05/09 06:17:48;;;;;;;5.47;1.72;;;;;;;12.12;59.55;102023.75;1718503;81;25760;-78
2022/05/09 06:20:15;;;;;;;2.35;1.32;;;;;;;12.25;58.13;102028.98;1734261;81;26535;-78
2022/05/09 06:22:41;;;;;;;5.03;1.55;;;;;;;12.32;57.31;102032.70;1737077;81;25689;-79
2022/05/09 06:25:12;;;;;;;4.05;1.62;;;;;;;12.35;57.01;102033.73;1734747;81;27494;-79
2022/05/09 06:27:40;;;;;;;4.72;1.55;;;;;;;12.46;56.29;102037.11;1751054;80;25801;-79
2022/05/09 06:30:11;;;;;;;4.33;1.37;;;;;;;12.52;56.78;102037.30;1753537;81;25764;-79
2022/05/09 06:32:38;;;;;;;4.22;1.47;;;;;;;12.60;56.62;102032.43;1741240;81;26129;-79
2022/05/09 06:35:09;;;;;;;1.17;0.98;;;;;;;12.72;56.47;102033.32;1741226;81;25922;-79
2022/05/09 06:37:38;;;;;;;5.20;1.50;;;;;;;12.83;55.33;102037.00;1752680;80;28772;-79
2022/05/09 06:40:07;;;;;;;4.62;1.75;;;;;;;12.89;54.42;102039.05;1741277;81;25738;-79
2022/05/09 06:42:35;;;;;;;3.80;1.40;;;;;;;12.94;53.92;102040.72;1736030;81;25289;-79
2022/05/09 06:45:02;;;;;;;5.12;1.72;;;;;;;12.96;52.98;102038.70;1723755;81;25825;-79
2022/05/09 06:47:28;;;;;;;4.35;1.45;;;;;;;13.02;52.81;102046.09;1736043;80;25879;-79
2022/05/09 06:50:03;;;;;;;3.67;1.60;;;;;;;13.08;52.96;102046.83;1745999;81;27441;-78
2022/05/09 06:52:29;;;;;;;5.45;1.45;;;;;;;13.13;53.66;102046.30;1739164;81;25732;-79
2022/05/09 06:54:56;;;;;;;4.37;1.37;;;;;;;13.25;53.63;102042.77;1741340;81;25936;-79
2022/05/09 06:57:22;;;;;;;4.45;1.70;;;;;;;13.36;53.35;102049.16;1739252;80;26580;-79
2022/05/09 06:59:48;;;;;;;1.50;1.40;;;;;;;13.44;52.18;102051.84;1739208;81;26204;-79
2022/05/09 07:02:15;;;;;;;3.42;1.10;;;;;;;13.48;52.29;102055.87;1742984;81;28232;-79
2022/05/09 07:04:41;;;;;;;2.62;1.40;;;;;;;13.55;50.49;102057.73;1740912;81;25743;-79
2022/05/09 07:07:07;;;;;;;2.47;1.07;;;;;;;13.56;49.64;102053.16;1738428;81;25829;-78
2022/05/09 07:09:33;;;;;;;4.25;1.27;;;;;;;13.62;51.80;102048.47;1748520;80;25822;-79
2022/05/09 07:12:00;;;;;;;2.20;1.10;;;;;;;13.71;51.54;102055.48;1724168;81;25742;-79
2022/05/09 07:14:26;;;;;;;3.50;1.30;;;;;;;13.79;49.78;102056.31;1746192;81;28250;-79
2022/05/09 07:16:52;;;;;;;3.62;0.90;;;;;;;13.80;49.56;102059.84;1734121;81;26491;-79
2022/05/09 07:19:18;;;;;;;4.97;1.47;;;;;;;13.85;49.83;102054.30;1743069;81;25791;-79
2022/05/09 07:21:45;;;;;;;3.25;1.30;;;;;;;13.94;50.56;102057.28;1739582;81;25762;-79
2022/05/09 07:24:11;;;;;;;3.17;1.12;;;;;;;14.01;50.03;102050.69;1740157;81;25786;-79
2022/05/09 07:26:38;;;;;;;3.70;1.12;;;;;;;14.13;48.99;102045.77;1728497;81;27519;-79
2022/05/09 07:29:05;;;;;;;4.08;1.15;;;;;;;14.24;49.32;102056.17;1744977;81;25448;-79
2022/05/09 07:31:32;;;;;;;2.35;1.10;;;;;;;14.32;48.92;102059.70;1735377;81;25808;-79
2022/05/09 07:33:58;;;;;;;2.85;0.95;;;;;;;14.42;48.39;102052.73;1753538;81;26492;-78
2022/05/09 07:36:24;;;;;;;2.75;0.82;;;;;;;14.50;48.11;102053.53;1742395;80;25949;-79
2022/05/09 07:38:51;;;;;;;2.65;1.80;;;;;;;14.59;48.80;102053.83;1753756;81;27443;-79
2022/05/09 07:41:19;;;;;;;2.37;0.85;;;;;;;14.68;47.52;102056.81;1739178;81;26698;-79
2022/05/09 07:43:45;;;;;;;4.03;1.30;;;;;;;14.78;47.99;102057.09;1737047;81;26530;-79
2022/05/09 07:46:12;;;;;;;3.60;1.40;;;;;;;14.83;47.85;102054.18;1747639;80;26466;-79
2022/05/09 07:48:40;;;;;;;5.78;1.05;;;;;;;14.96;47.82;102049.53;1725842;81;25760;-78
2022/05/09 07:51:06;;;;;;;3.40;1.00;;;;;;;15.07;47.81;102062.11;1743821;81;27422;-78
2022/05/09 07:53:34;;;;;;;4.22;0.80;;;;;;;15.12;46.68;102061.03;1739167;81;25840;-79
2022/05/09 07:56:03;;;;;;;4.33;0.82;;;;;;;15.17;47.14;102049.19;1745029;81;25846;-76
2022/05/09 07:58:29;;;;;;;4.15;1.07;;;;;;;15.28;46.51;102054.16;1749148;81;25770;-76
2022/05/09 08:00:58;;;;;;;4.70;1.12;;;;;;;15.38;46.60;102053.89;1742036;81;25261;-76
2022/05/09 08:03:24;;;;;;;2.67;1.57;;;;;;;15.42;46.92;102052.00;1738637;81;27460;-76
2022/05/09 08:05:56;;;;;;;3.27;1.20;;;;;;;15.50;46.11;102043.53;1738805;80;25487;-77
2022/05/09 08:08:21;;;;;;;2.40;0.90;;;;;;;15.60;46.25;102054.91;1740944;81;26100;-76
2022/05/09 08:10:48;;;;;;;4.78;1.10;;;;;;;15.64;44.44;102044.90;1738618;81;25814;-76
2022/05/09 08:13:18;;;;;;;2.52;1.00;;;;;;;15.65;44.66;102047.94;1748586;81;25789;-77
2022/05/09 08:15:46;;;;;;;3.27;1.10;;;;;;;15.65;43.80;102045.24;1752670;81;28139;-77
2022/05/09 08:18:13;;;;;;;6.05;0.78;;;;;;;15.68;43.93;102042.15;1753100;80;25907;-76
2022/05/09 08:20:43;;;;;;;3.02;1.50;;;;;;;15.73;45.05;102046.50;1738330;80;25797;-76
2022/05/09 08:23:12;;;;;;;3.62;1.87;;;;;;;15.79;44.90;102039.50;1767570;80;25769;-76
2022/05/09 08:25:42;;;;;;;5.62;1.00;;;;;;;15.86;44.59;102042.64;1776496;80;25807;-76
2022/05/09 08:28:09;;;;;;;3.67;1.20;;;;;;;15.98;44.36;102046.55;1756238;80;27514;-77
2022/05/09 08:30:38;;;;;;;3.20;1.45;;;;;;;16.03;43.88;102047.34;1767926;80;26460;-76
2022/05/09 08:33:09;;;;;;;2.83;1.60;;;;;;;15.99;43.70;102043.34;1723205;81;25790;-76
2022/05/09 08:35:36;;;;;;;8.30;1.45;;;;;;;16.02;44.21;102041.59;1726365;81;25867;-76
2022/05/09 08:38:02;;;;;;;2.27;1.00;;;;;;;16.08;43.28;102044.38;1743699;80;25959;-76
2022/05/09 08:40:36;;;;;;;3.80;1.55;;;;;;;16.20;42.63;102036.65;1719469;81;27443;-76
2022/05/09 08:43:29;;;;;;;4.12;1.10;;;;;;;16.33;44.60;102046.79;1733158;81;25964;-75
2022/05/09 08:46:25;;;;;;;1.72;1.10;;;;;;;16.47;44.18;102044.55;1732091;80;25838;-76
2022/05/09 08:49:22;;;;;;;4.92;1.05;;;;;;;16.50;44.05;102042.87;1752631;81;26561;-76
2022/05/09 08:52:10;;;;;;;1.85;1.00;;;;;;;16.51;43.51;102044.02;1745607;81;25810;-76
2022/05/09 08:54:38;;;;;;;1.15;0.80;;;;;;;16.58;42.13;102042.75;1722719;81;27480;-76
2022/05/09 08:57:12;;;;;;;2.00;0.90;;;;;;;16.50;42.41;102045.06;1746605;80;25892;-76
2022/05/09 08:59:46;;;;;;;3.45;1.20;;;;;;;16.48;39.34;102047.09;1718000;81;26546;-76
2022/05/09 09:02:23;;;;;;;4.78;1.30;;;;;;;16.36;39.88;102044.53;1741308;81;26384;-76
2022/05/09 09:04:54;;;;;;;4.58;1.25;;;;;;;16.31;40.45;102046.14;1741670;81;25865;-76
2022/05/09 09:07:58;;;;;;;2.00;0.90;;;;;;;16.24;39.74;102051.46;1738410;79;28288;-76
2022/05/09 09:10:35;;;;;;;2.65;1.32;;;;;;;16.26;40.87;102045.86;1664545;85;25833;-76
2022/05/09 09:13:23;;;;;;;3.70;1.12;;;;;;;16.34;41.90;102047.13;1658391;85;25857;-76
2022/05/09 09:16:35;;;;;;;2.95;1.00;;;;;;;16.47;40.87;102048.11;1657885;85;26693;-77
2022/05/09 09:19:25;;;;;;;3.70;1.02;;;;;;;16.44;39.30;102049.02;1659057;85;26048;-76
2022/05/09 09:22:33;;;;;;;1.87;0.93;;;;;;;16.37;39.23;102047.58;1668526;85;27485;-77
2022/05/09 09:25:37;;;;;;;1.60;1.00;;;;;;;16.36;38.72;102045.08;1678808;84;25878;-76
2022/05/09 09:28:14;;;;;;;1.98;0.90;;;;;;;16.42;40.38;102052.42;1628790;87;25895;-76
2022/05/09 09:30:43;;;;;;;2.87;1.00;;;;;;;16.45;41.22;102053.38;1668554;85;25940;-76
2022/05/09 09:33:14;;;;;;;1.47;0.98;;;;;;;16.49;38.88;102063.63;1669105;85;25888;-76
2022/05/09 09:35:49;;;;;;;4.10;1.02;;;;;;;16.48;38.32;102051.66;1668653;85;28225;-76
2022/05/09 09:38:41;;;;;;;3.15;0.90;;;;;;;16.47;38.43;102048.61;1661769;84;26505;-77
2022/05/09 09:41:25;;;;;;;2.80;0.95;;;;;;;16.50;39.91;102054.53;1667420;85;25922;-76
2022/05/09 09:44:08;;;;;;;2.00;0.90;;;;;;;16.57;39.47;102050.02;1668635;84;26492;-76
2022/05/09 09:47:03;;;;;;;2.72;0.88;;;;;;;16.56;38.66;102048.36;1668781;85;25957;-77
2022/05/09 09:49:33;;;;;;;1.85;0.70;;;;;;;16.59;38.19;102035.81;1667812;85;28530;-76
2022/05/09 09:51:59;;;;;;;2.77;0.90;;;;;;;16.64;38.78;102040.63;1668562;85;25951;-77
2022/05/09 09:54:33;;;;;;;3.83;1.17;;;;;;;16.67;37.90;102037.05;1668622;85;25817;-76
2022/05/09 09:57:22;;;;;;;1.02;0.65;;;;;;;16.77;38.08;102034.84;1668777;85;25936;-76
2022/05/09 09:59:49;;;;;;;4.70;1.15;;;;;;;16.83;38.65;102039.48;1669250;85;25739;-77
2022/05/09 10:02:28;;;;;;;2.37;0.85;;;;;;;16.92;37.77;102044.26;1668694;85;27457;-77
2022/05/09 10:04:57;;;;;;;3.45;0.82;;;;;;;16.92;37.79;102031.57;1668967;85;25678;-76
2022/05/09 10:07:33;;;;;;;2.47;0.98;;;;;;;16.89;37.61;102024.36;1668941;85;25835;-76
2022/05/09 10:10:20;;;;;;;1.15;0.98;;;;;;;16.94;37.35;102027.30;1662055;85;26715;-76
2022/05/09 10:12:56;;;;;;;4.55;0.70;;;;;;;16.92;36.96;102030.72;1657075;85;25791;-76
2022/05/09 10:15:35;;;;;;;3.47;1.02;;;;;;;16.92;36.65;102034.78;1667718;85;27476;-75
2022/05/09 10:18:23;;;;;;;2.27;0.75;;;;;;;16.96;38.05;102029.30;1671847;84;25986;-77
2022/05/09 10:20:53;;;;;;;2.20;0.75;;;;;;;17.02;36.83;102030.41;1658455;85;26502;-76
2022/05/09 10:26:28;;;;;;;3.50;1.20;;;;;;;16.98;36.56;102025.38;1664132;85;25794;-76
2022/05/09 10:28:58;;;;;;;2.75;1.10;;;;;;;17.01;35.75;102026.86;1621739;87;27483;-76
2022/05/09 10:31:40;;;;;;;5.40;1.10;;;;;;;16.98;35.32;102019.96;1664227;85;25921;-77
2022/05/09 10:34:26;;;;;;;3.87;1.00;;;;;;;17.00;36.37;102021.11;1668162;85;25857;-77
2022/05/09 10:37:07;;;;;;;3.08;1.25;;;;;;;17.06;36.11;102016.30;1668186;85;26741;-76
2022/05/09 10:39:42;;;;;;;2.12;0.55;;;;;;;17.14;37.41;102011.25;1668171;85;25798;-75
2022/05/09 10:42:12;;;;;;;2.42;1.00;;;;;;;17.28;36.83;102015.22;1667878;85;27466;-76
2022/05/09 10:44:53;;;;;;;1.40;1.10;;;;;;;17.26;34.88;102013.73;1670058;84;26861;-76
2022/05/09 10:47:42;;;;;;;2.52;1.32;;;;;;;17.29;37.06;102009.30;1647149;85;25840;-76
2022/05/09 10:50:49;;;;;;;1.65;0.70;;;;;;;17.31;36.20;102005.87;1660679;85;25913;-76
2022/05/09 10:53:31;;;;;;;2.62;1.32;;;;;;;17.32;36.94;102002.95;1662249;85;25835;-76
2022/05/09 10:56:12;;;;;;;1.47;0.88;;;;;;;17.43;36.01;102003.77;1668822;85;27481;-76
2022/05/09 10:58:48;;;;;;;;;;;;;;;17.52;36.74;101998.56;1671364;85;25806;-76
2022/05/09 11:01:43;;;;;;;1.00;0.90;;;;;;;17.57;35.38;102001.52;1669030;85;25327;-76
2022/05/09 11:04:13;;;;;;;1.02;0.60;;;;;;;17.48;34.05;102001.32;1662869;85;26522;-76
2022/05/09 11:06:59;;;;;;;1.85;1.02;;;;;;;17.42;35.22;102008.89;1668806;85;25858;-76
2022/05/09 11:10:21;;;;;;;2.58;1.02;;;;;;;17.45;35.91;102002.24;1668624;85;27485;-76
2022/05/09 11:13:05;;;;;;;2.85;1.15;;;;;;;17.60;36.12;101993.48;1668058;85;26523;-76
2022/05/09 11:16:00;;;;;;;4.08;1.00;;;;;;;17.81;36.61;101992.59;1665656;85;25818;-77
2022/05/09 11:18:58;;;;;;;1.15;0.70;;;;;;;17.88;34.23;101996.19;1662266;85;25801;-76
2022/05/09 11:21:51;;;;;;;1.27;0.80;;;;;;;17.84;34.96;101994.38;1660557;85;25821;-76
2022/05/09 11:25:01;;;;;;;2.08;1.00;;;;;;;17.83;34.29;101994.07;1668890;85;28274;-76
2022/05/09 11:27:49;;;;;;;2.10;0.68;;;;;;;17.81;35.57;101990.72;1664927;85;26427;-76
2022/05/09 11:30:50;;;;;;;0.95;0.50;;;;;;;17.81;33.87;101984.46;1668523;85;25850;-76
2022/05/09 11:33:33;;;;;;;1.57;0.80;;;;;;;17.81;34.68;101988.52;1649958;86;25935;-76
2022/05/09 11:36:08;;;;;;;1.75;0.95;;;;;;;17.93;35.78;101978.77;1660756;85;25749;-76
2022/05/09 11:39:09;;;;;;;2.27;1.12;;;;;;;18.03;35.18;101968.38;1606660;85;27465;-77
2022/05/09 11:43:27;;;;;;;2.50;1.00;;;;;;;18.10;33.47;101963.32;1668326;85;25950;-77
2022/05/09 11:44:40;;;;;;;1.65;0.90;;;;;;;18.08;35.42;101968.63;1665523;85;25822;-79
2022/05/09 11:47:18;;;;;;;3.05;0.80;;;;;;;18.09;33.96;101956.75;1674685;85;26602;-79
2022/05/09 11:50:03;;;;;;;2.02;0.95;;;;;;;18.10;34.65;101959.77;1654825;85;25759;-79
2022/05/09 11:52:38;;;;;;;5.58;0.93;;;;;;;18.20;35.12;101966.98;1668391;85;27501;-77
2022/05/09 11:55:19;;;;;;;3.67;1.00;;;;;;;18.31;36.29;101956.91;1668659;85;25912;-76
2022/05/09 11:57:58;;;;;;;3.33;1.00;;;;;;;18.36;34.50;101955.78;1668419;85;25751;-76
2022/05/09 12:00:36;;;;;;;5.75;1.40;;;;;;;18.31;33.26;101947.41;1668448;85;25838;-76
2022/05/09 12:03:09;;;;;;;1.12;0.70;;;;;;;18.24;33.38;101950.11;1668392;85;26531;-79
2022/05/09 12:05:41;;;;;;;1.42;0.70;;;;;;;18.24;32.91;101953.36;1668595;85;27538;-79
2022/05/09 12:08:21;;;;;;;1.82;0.80;;;;;;;18.21;33.50;101947.82;1668670;85;26008;-78